createdAt,value
2017-06-15T00:00:05.115Z,0
2017-06-15T00:01:05.411Z,0
2017-06-15T00:02:05.404Z,0
2017-06-15T00:03:05.704Z,0
2017-06-15T00:04:05.380Z,0
2017-06-15T00:05:05.375Z,0
2017-06-15T00:06:05.679Z,0
2017-06-15T00:07:05.047Z,0
2017-06-15T00:08:05.342Z,0
2017-06-15T00:09:05.646Z,0
2017-06-15T00:10:05.336Z,0
2017-06-15T00:11:05.323Z,0
2017-06-15T00:12:04.987Z,0
2017-06-15T00:13:05.303Z,0
2017-06-15T00:14:05.280Z,0
2017-06-15T00:15:05.287Z,0
2017-06-15T00:16:04.951Z,0
2017-06-15T00:17:04.944Z,0
2017-06-15T00:18:05.242Z,0
2017-06-15T00:19:04.919Z,0
2017-06-15T00:20:05.527Z,0
2017-06-15T00:21:05.525Z,0
2017-06-15T00:22:05.517Z,0
2017-06-15T00:23:05.195Z,0
2017-06-15T00:24:04.871Z,0
2017-06-15T00:25:05.169Z,0
2017-06-15T00:26:05.470Z,0
2017-06-15T00:27:05.147Z,0
2017-06-15T00:28:04.833Z,0
2017-06-15T00:29:05.439Z,0
2017-06-15T00:30:05.123Z,0
2017-06-15T00:31:04.484Z,0
2017-06-15T00:32:05.106Z,0
2017-06-15T00:33:05.399Z,0
2017-06-15T00:34:04.764Z,0
2017-06-15T00:35:04.751Z,0
2017-06-15T00:36:05.056Z,0
2017-06-15T00:37:04.733Z,0
2017-06-15T00:38:05.350Z,0
2017-06-15T00:39:05.024Z,0
2017-06-15T00:40:04.699Z,0
2017-06-15T00:41:04.382Z,0
2017-06-15T00:42:04.682Z,0
2017-06-15T00:43:04.671Z,0
2017-06-15T00:44:05.283Z,0
2017-06-15T00:45:04.966Z,0
2017-06-15T00:46:04.965Z,0
2017-06-15T00:47:04.938Z,0
2017-06-15T00:48:04.619Z,0
2017-06-15T00:49:04.918Z,0
2017-06-15T00:50:04.600Z,0
2017-06-15T00:51:04.898Z,0
2017-06-15T00:52:04.582Z,0
2017-06-15T00:53:04.880Z,0
2017-06-15T00:54:04.865Z,0
2017-06-15T00:55:04.853Z,0
2017-06-15T00:56:04.535Z,0
2017-06-15T00:57:04.839Z,0
2017-06-15T00:58:04.825Z,0
2017-06-15T00:59:04.816Z,0
2017-06-15T01:00:04.806Z,0
2017-06-15T01:01:04.805Z,0
2017-06-15T01:02:05.093Z,0
2017-06-15T01:03:04.793Z,0
2017-06-15T01:04:04.133Z,0
2017-06-15T01:05:05.065Z,0
2017-06-15T01:06:05.051Z,0
2017-06-15T01:07:05.043Z,0
2017-06-15T01:08:04.718Z,0
2017-06-15T01:09:04.711Z,0
2017-06-15T01:10:04.392Z,0
2017-06-15T01:11:04.687Z,0
2017-06-15T01:12:04.671Z,0
2017-06-15T01:13:04.350Z,0
2017-06-15T01:14:04.660Z,0
2017-06-15T01:15:04.328Z,0
2017-06-15T01:16:04.633Z,0
2017-06-15T01:17:03.998Z,0
2017-06-15T01:18:04.918Z,0
2017-06-15T01:19:04.914Z,0
2017-06-15T01:20:04.590Z,0
2017-06-15T01:21:04.573Z,0
2017-06-15T01:22:04.879Z,0
2017-06-15T01:23:05.080Z,0
2017-06-15T01:24:04.541Z,0
2017-06-15T01:25:04.540Z,0
2017-06-15T01:26:04.522Z,0
2017-06-15T01:27:04.511Z,0
2017-06-15T01:28:04.815Z,0
2017-06-15T01:29:04.490Z,0
2017-06-15T01:30:04.476Z,0
2017-06-15T01:31:04.477Z,0
2017-06-15T01:32:04.162Z,0
2017-06-15T01:33:04.449Z,0
2017-06-15T01:34:04.439Z,0
2017-06-15T01:35:04.428Z,0
2017-06-15T01:36:04.409Z,0
2017-06-15T01:37:04.093Z,0
2017-06-15T01:38:03.994Z,0
2017-06-15T01:39:04.710Z,0
2017-06-15T01:40:04.366Z,0
2017-06-15T01:41:04.670Z,0
2017-06-15T01:42:04.345Z,0
2017-06-15T01:43:04.016Z,0
2017-06-15T01:44:04.010Z,0
2017-06-15T01:45:04.375Z,0
2017-06-15T01:46:04.332Z,0
2017-06-15T01:47:04.605Z,0
2017-06-15T01:48:04.597Z,0
2017-06-15T01:49:04.267Z,0
2017-06-15T01:50:04.280Z,0
2017-06-15T01:51:04.273Z,0
2017-06-15T01:52:03.939Z,0
2017-06-15T01:53:04.224Z,0
2017-06-15T01:54:03.914Z,0
2017-06-15T01:55:04.205Z,0
2017-06-15T01:56:04.497Z,0
2017-06-15T01:57:03.863Z,0
2017-06-15T01:58:03.853Z,0
2017-06-15T01:59:04.472Z,0
2017-06-15T02:00:03.839Z,0
2017-06-15T02:01:04.131Z,0
2017-06-15T02:02:04.445Z,0
2017-06-15T02:03:04.425Z,0
2017-06-15T02:04:04.174Z,0
2017-06-15T02:05:03.770Z,0
2017-06-15T02:06:04.076Z,0
2017-06-15T02:07:03.751Z,0
2017-06-15T02:08:04.056Z,0
2017-06-15T02:09:03.733Z,0
2017-06-15T02:10:03.716Z,0
2017-06-15T02:11:04.025Z,0
2017-06-15T02:12:03.691Z,0
2017-06-15T02:13:04.001Z,0
2017-06-15T02:14:03.673Z,0
2017-06-15T02:15:03.982Z,0
2017-06-15T02:16:04.005Z,0
2017-06-15T02:17:04.159Z,0
2017-06-15T02:18:03.963Z,0
2017-06-15T02:19:03.303Z,0
2017-06-15T02:20:03.941Z,0
2017-06-15T02:21:03.613Z,0
2017-06-15T02:22:03.942Z,0
2017-06-15T02:23:03.591Z,0
2017-06-15T02:24:04.203Z,0
2017-06-15T02:25:04.202Z,0
2017-06-15T02:26:03.868Z,0
2017-06-15T02:27:03.543Z,0
2017-06-15T02:28:03.837Z,0
2017-06-15T02:29:03.526Z,0
2017-06-15T02:30:03.835Z,0
2017-06-15T02:31:03.793Z,0
2017-06-15T02:32:04.100Z,4
2017-06-15T02:33:03.463Z,4
2017-06-15T02:34:03.759Z,4
2017-06-15T02:35:04.065Z,0
2017-06-15T02:36:03.424Z,0
2017-06-15T02:37:03.729Z,4
2017-06-15T02:38:03.712Z,4
2017-06-15T02:39:03.703Z,4
2017-06-15T02:40:03.381Z,4
2017-06-15T02:41:03.685Z,4
2017-06-15T02:42:03.986Z,4
2017-06-15T02:43:03.660Z,8
2017-06-15T02:44:03.651Z,8
2017-06-15T02:45:03.328Z,8
2017-06-15T02:46:03.313Z,8
2017-06-15T02:47:03.315Z,8
2017-06-15T02:48:03.605Z,8
2017-06-15T02:49:03.594Z,12
2017-06-15T02:50:03.267Z,16
2017-06-15T02:51:03.572Z,16
2017-06-15T02:52:03.553Z,20
2017-06-15T02:53:03.272Z,20
2017-06-15T02:54:03.539Z,24
2017-06-15T02:55:03.522Z,28
2017-06-15T02:56:03.527Z,28
2017-06-15T02:57:03.498Z,36
2017-06-15T02:58:03.491Z,36
2017-06-15T02:59:03.167Z,40
2017-06-15T03:00:03.475Z,44
2017-06-15T03:01:03.455Z,48
2017-06-15T03:02:03.442Z,52
2017-06-15T03:03:03.441Z,56
2017-06-15T03:04:03.423Z,64
2017-06-15T03:05:03.408Z,68
2017-06-15T03:06:03.709Z,72
2017-06-15T03:07:03.392Z,76
2017-06-15T03:08:03.382Z,80
2017-06-15T03:09:03.676Z,88
2017-06-15T03:10:03.037Z,92
2017-06-15T03:11:03.652Z,100
2017-06-15T03:12:03.015Z,104
2017-06-15T03:13:03.357Z,116
2017-06-15T03:14:02.992Z,120
2017-06-15T03:15:02.983Z,128
2017-06-15T03:16:03.601Z,140
2017-06-15T03:17:02.961Z,152
2017-06-15T03:18:02.950Z,160
2017-06-15T03:19:02.934Z,168
2017-06-15T03:20:03.239Z,180
2017-06-15T03:21:03.226Z,192
2017-06-15T03:22:03.223Z,204
2017-06-15T03:23:03.410Z,216
2017-06-15T03:24:03.200Z,228
2017-06-15T03:25:03.506Z,244
2017-06-15T03:26:03.487Z,256
2017-06-15T03:27:02.529Z,272
2017-06-15T03:28:03.148Z,288
2017-06-15T03:29:02.822Z,304
2017-06-15T03:30:03.126Z,320
2017-06-15T03:31:02.799Z,340
2017-06-15T03:32:02.790Z,360
2017-06-15T03:33:03.420Z,384
2017-06-15T03:34:02.767Z,400
2017-06-15T03:35:02.755Z,424
2017-06-15T03:36:03.366Z,448
2017-06-15T03:37:02.417Z,464
2017-06-15T03:38:03.353Z,488
2017-06-15T03:39:02.393Z,512
2017-06-15T03:40:03.019Z,536
2017-06-15T03:41:03.000Z,556
2017-06-15T03:42:02.994Z,580
2017-06-15T03:43:03.292Z,604
2017-06-15T03:44:02.976Z,624
2017-06-15T03:45:02.962Z,648
2017-06-15T03:46:03.256Z,672
2017-06-15T03:47:02.945Z,696
2017-06-15T03:48:02.921Z,720
2017-06-15T03:49:02.908Z,736
2017-06-15T03:50:02.894Z,760
2017-06-15T03:51:02.888Z,780
2017-06-15T03:52:02.873Z,796
2017-06-15T03:53:03.174Z,812
2017-06-15T03:54:02.865Z,828
2017-06-15T03:55:02.841Z,836
2017-06-15T03:56:02.828Z,844
2017-06-15T03:57:02.812Z,856
2017-06-15T03:58:02.492Z,868
2017-06-15T03:59:02.481Z,880
2017-06-15T04:00:02.779Z,884
2017-06-15T04:01:02.459Z,892
2017-06-15T04:02:02.448Z,908
2017-06-15T04:03:02.758Z,928
2017-06-15T04:04:02.739Z,948
2017-06-15T04:05:02.726Z,964
2017-06-15T04:06:02.719Z,976
2017-06-15T04:07:02.704Z,996
2017-06-15T04:08:02.377Z,1016
2017-06-15T04:09:03.000Z,1032
2017-06-15T04:10:02.359Z,1056
2017-06-15T04:11:02.655Z,1076
2017-06-15T04:12:02.330Z,1096
2017-06-15T04:13:02.634Z,1112
2017-06-15T04:14:02.936Z,1128
2017-06-15T04:15:02.610Z,1144
2017-06-15T04:16:01.995Z,1160
2017-06-15T04:17:02.586Z,1176
2017-06-15T04:18:02.265Z,1204
2017-06-15T04:19:02.254Z,1228
2017-06-15T04:20:02.245Z,1248
2017-06-15T04:21:02.236Z,1276
2017-06-15T04:22:02.843Z,1304
2017-06-15T04:23:02.522Z,1340
2017-06-15T04:24:01.902Z,1376
2017-06-15T04:25:02.501Z,1416
2017-06-15T04:26:02.492Z,1456
2017-06-15T04:27:02.475Z,1504
2017-06-15T04:28:02.473Z,1544
2017-06-15T04:29:02.453Z,1588
2017-06-15T04:30:02.132Z,1632
2017-06-15T04:31:02.122Z,1676
2017-06-15T04:32:02.734Z,1704
2017-06-15T04:33:02.724Z,1736
2017-06-15T04:34:02.713Z,1760
2017-06-15T04:35:02.077Z,1776
2017-06-15T04:36:02.372Z,1800
2017-06-15T04:37:02.051Z,1824
2017-06-15T04:38:02.369Z,1856
2017-06-15T04:39:02.343Z,1884
2017-06-15T04:40:02.330Z,1916
2017-06-15T04:41:02.636Z,1936
2017-06-15T04:42:02.313Z,1960
2017-06-15T04:43:02.325Z,1988
2017-06-15T04:44:02.290Z,2012
2017-06-15T04:45:02.586Z,2040
2017-06-15T04:46:01.955Z,2060
2017-06-15T04:47:02.260Z,2080
2017-06-15T04:48:01.948Z,2096
2017-06-15T04:49:02.547Z,2120
2017-06-15T04:50:02.536Z,2148
2017-06-15T04:51:02.214Z,2164
2017-06-15T04:52:01.920Z,2168
2017-06-15T04:53:01.894Z,2172
2017-06-15T04:54:01.918Z,2172
2017-06-15T04:55:02.176Z,2176
2017-06-15T04:56:01.847Z,2184
2017-06-15T04:57:02.459Z,2204
2017-06-15T04:58:01.825Z,2232
2017-06-15T04:59:02.122Z,2256
2017-06-15T05:00:02.126Z,2288
2017-06-15T05:01:02.109Z,2312
2017-06-15T05:02:02.100Z,2344
2017-06-15T05:03:02.092Z,2368
2017-06-15T05:04:01.759Z,2404
2017-06-15T05:05:02.086Z,2436
2017-06-15T05:06:01.742Z,2472
2017-06-15T05:07:02.040Z,2500
2017-06-15T05:08:02.347Z,2520
2017-06-15T05:09:02.024Z,2540
2017-06-15T05:10:02.014Z,2544
2017-06-15T05:11:01.690Z,2536
2017-06-15T05:12:02.304Z,2540
2017-06-15T05:13:01.668Z,2556
2017-06-15T05:14:02.302Z,2572
2017-06-15T05:15:01.961Z,2572
2017-06-15T05:16:01.652Z,2568
2017-06-15T05:17:01.632Z,2636
2017-06-15T05:18:01.620Z,2692
2017-06-15T05:19:01.651Z,2740
2017-06-15T05:20:01.596Z,2764
2017-06-15T05:21:02.234Z,2764
2017-06-15T05:22:01.922Z,2792
2017-06-15T05:23:02.285Z,2796
2017-06-15T05:24:02.183Z,2784
2017-06-15T05:25:01.552Z,2768
2017-06-15T05:26:01.548Z,2740
2017-06-15T05:27:02.154Z,2716
2017-06-15T05:28:01.842Z,2676
2017-06-15T05:29:01.819Z,2632
2017-06-15T05:30:02.123Z,2584
2017-06-15T05:31:01.831Z,2572
2017-06-15T05:32:01.808Z,2560
2017-06-15T05:33:02.094Z,2556
2017-06-15T05:34:01.775Z,2564
2017-06-15T05:35:02.069Z,2584
2017-06-15T05:36:01.755Z,2616
2017-06-15T05:37:01.750Z,2652
2017-06-15T05:38:01.739Z,2704
2017-06-15T05:39:01.419Z,2760
2017-06-15T05:40:01.407Z,2808
2017-06-15T05:41:01.709Z,2864
2017-06-15T05:42:01.384Z,2932
2017-06-15T05:43:01.998Z,2988
2017-06-15T05:44:01.677Z,3056
2017-06-15T05:45:01.668Z,3128
2017-06-15T05:46:01.664Z,3200
2017-06-15T05:47:01.649Z,3256
2017-06-15T05:48:01.960Z,3308
2017-06-15T05:49:01.322Z,3372
2017-06-15T05:50:01.619Z,3424
2017-06-15T05:51:01.940Z,3452
2017-06-15T05:52:01.936Z,3500
2017-06-15T05:53:01.303Z,3520
2017-06-15T05:54:01.586Z,3520
2017-06-15T05:55:01.889Z,3536
2017-06-15T05:56:01.882Z,3552
2017-06-15T05:57:01.551Z,3548
2017-06-15T05:58:01.236Z,3532
2017-06-15T05:59:01.222Z,3488
2017-06-15T06:00:01.531Z,3424
2017-06-15T06:01:01.522Z,3404
2017-06-15T06:02:01.199Z,3392
2017-06-15T06:03:01.829Z,3332
2017-06-15T06:04:01.179Z,3232
2017-06-15T06:05:01.846Z,3172
2017-06-15T06:06:01.173Z,3092
2017-06-15T06:07:01.808Z,3024
2017-06-15T06:08:01.139Z,3020
2017-06-15T06:09:01.448Z,3056
2017-06-15T06:10:01.435Z,3120
2017-06-15T06:11:01.424Z,3196
2017-06-15T06:12:01.420Z,3296
2017-06-15T06:13:01.094Z,3412
2017-06-15T06:14:01.092Z,3552
2017-06-15T06:15:01.078Z,3744
2017-06-15T06:16:01.430Z,5556
2017-06-15T06:17:01.376Z,9404
2017-06-15T06:18:01.363Z,12300
2017-06-15T06:19:01.398Z,13824
2017-06-15T06:20:01.676Z,13792
2017-06-15T06:21:00.785Z,11860
2017-06-15T06:22:01.343Z,11584
2017-06-15T06:23:01.341Z,12888
2017-06-15T06:24:01.325Z,14096
2017-06-15T06:25:01.761Z,8760
2017-06-15T06:26:01.676Z,5064
2017-06-15T06:27:01.301Z,4888
2017-06-15T06:28:01.326Z,4928
2017-06-15T06:29:00.976Z,4960
2017-06-15T06:30:00.968Z,4976
2017-06-15T06:31:00.961Z,4964
2017-06-15T06:32:00.647Z,4956
2017-06-15T06:33:01.290Z,4872
2017-06-15T06:34:00.949Z,4856
2017-06-15T06:35:01.607Z,4732
2017-06-15T06:36:00.930Z,4628
2017-06-15T06:37:01.235Z,4568
2017-06-15T06:38:01.228Z,4528
2017-06-15T06:39:01.223Z,4604
2017-06-15T06:40:01.286Z,4648
2017-06-15T06:41:01.207Z,4724
2017-06-15T06:42:01.202Z,4968
2017-06-15T06:43:01.196Z,5732
2017-06-15T06:44:01.188Z,8028
2017-06-15T06:45:00.860Z,11464
2017-06-15T06:46:01.168Z,12240
2017-06-15T06:47:01.158Z,15528
2017-06-15T06:48:01.154Z,15664
2017-06-15T06:49:01.152Z,11528
2017-06-15T06:50:00.825Z,15364
2017-06-15T06:51:00.824Z,13360
2017-06-15T06:52:01.122Z,8772
2017-06-15T06:53:01.432Z,5892
2017-06-15T06:54:01.112Z,5412
2017-06-15T06:55:00.795Z,5184
2017-06-15T06:56:01.102Z,5096
2017-06-15T06:57:00.782Z,5100
2017-06-15T06:58:00.774Z,5044
2017-06-15T06:59:01.403Z,5016
2017-06-15T07:00:01.127Z,5048
2017-06-15T07:01:01.386Z,5284
2017-06-15T07:02:01.088Z,7104
2017-06-15T07:03:01.368Z,13724
2017-06-15T07:04:01.047Z,11272
2017-06-15T07:05:00.766Z,6280
2017-06-15T07:06:01.035Z,4832
2017-06-15T07:07:00.718Z,4708
2017-06-15T07:08:00.715Z,4736
2017-06-15T07:09:01.023Z,4764
2017-06-15T07:10:00.388Z,4816
2017-06-15T07:11:01.323Z,4944
2017-06-15T07:12:00.688Z,5156
2017-06-15T07:13:00.376Z,5448
2017-06-15T07:14:01.308Z,5816
2017-06-15T07:15:00.360Z,6288
2017-06-15T07:16:00.984Z,7740
2017-06-15T07:17:00.661Z,13208
2017-06-15T07:18:00.966Z,23616
2017-06-15T07:19:00.971Z,34528
2017-06-15T07:20:00.958Z,39104
2017-06-15T07:21:00.960Z,38912
2017-06-15T07:22:00.951Z,39424
2017-06-15T07:23:01.354Z,40736
2017-06-15T07:24:00.621Z,36000
2017-06-15T07:25:00.933Z,37856
2017-06-15T07:26:00.933Z,32064
2017-06-15T07:27:01.244Z,34080
2017-06-15T07:28:00.926Z,36960
2017-06-15T07:29:01.235Z,34080
2017-06-15T07:30:01.231Z,33408
2017-06-15T07:31:00.913Z,32864
2017-06-15T07:32:00.908Z,30816
2017-06-15T07:33:00.603Z,29472
2017-06-15T07:34:00.609Z,32800
2017-06-15T07:35:01.215Z,32640
2017-06-15T07:36:01.214Z,41248
2017-06-15T07:37:00.909Z,43168
2017-06-15T07:38:00.899Z,39808
2017-06-15T07:39:00.641Z,41664
2017-06-15T07:40:00.583Z,39424
2017-06-15T07:41:00.894Z,37120
2017-06-15T07:42:00.896Z,36608
2017-06-15T07:43:00.892Z,36928
2017-06-15T07:44:00.894Z,39424
2017-06-15T07:45:01.207Z,41984
2017-06-15T07:46:00.886Z,33600
2017-06-15T07:47:00.254Z,33856
2017-06-15T07:48:00.877Z,31328
2017-06-15T07:49:00.570Z,25632
2017-06-15T07:50:01.222Z,25184
2017-06-15T07:51:01.188Z,33056
2017-06-15T07:52:01.195Z,32352
2017-06-15T07:53:00.565Z,32352
2017-06-15T07:54:00.876Z,27040
2017-06-15T07:55:00.567Z,21728
2017-06-15T07:56:01.191Z,20768
2017-06-15T07:57:00.872Z,21504
2017-06-15T07:58:01.181Z,22272
2017-06-15T07:59:00.882Z,22144
2017-06-15T08:00:00.878Z,24160
2017-06-15T08:01:00.560Z,27776
2017-06-15T08:02:00.558Z,25216
2017-06-15T08:03:01.180Z,24512
2017-06-15T08:04:00.866Z,22208
2017-06-15T08:05:00.859Z,22464
2017-06-15T08:06:00.861Z,23424
2017-06-15T08:07:00.856Z,23776
2017-06-15T08:08:00.856Z,19456
2017-06-15T08:09:00.543Z,24480
2017-06-15T08:10:00.227Z,25280
2017-06-15T08:11:01.183Z,22368
2017-06-15T08:12:00.542Z,19712
2017-06-15T08:13:00.844Z,20512
2017-06-15T08:14:00.225Z,24832
2017-06-15T08:15:00.856Z,26144
2017-06-15T08:16:01.161Z,26752
2017-06-15T08:17:01.157Z,30432
2017-06-15T08:18:00.835Z,28480
2017-06-15T08:19:00.237Z,26368
2017-06-15T08:20:01.150Z,24128
2017-06-15T08:21:01.156Z,25536
2017-06-15T08:22:00.209Z,21856
2017-06-15T08:23:00.522Z,24256
2017-06-15T08:24:00.828Z,32384
2017-06-15T08:25:00.565Z,32736
2017-06-15T08:26:01.138Z,33120
2017-06-15T08:27:00.508Z,32800
2017-06-15T08:28:00.516Z,29568
2017-06-15T08:29:00.823Z,30464
2017-06-15T08:30:00.823Z,34240
2017-06-15T08:31:01.146Z,33696
2017-06-15T08:32:00.822Z,35840
2017-06-15T08:33:00.864Z,41504
2017-06-15T08:34:00.504Z,51104
2017-06-15T08:35:00.510Z,45088
2017-06-15T08:36:00.820Z,46144
2017-06-15T08:37:01.144Z,47264
2017-06-15T08:38:00.816Z,23584
2017-06-15T08:39:00.499Z,38784
2017-06-15T08:40:00.808Z,25888
2017-06-15T08:41:01.131Z,36288
2017-06-15T08:42:00.495Z,45312
2017-06-15T08:43:01.128Z,30656
2017-06-15T08:44:00.821Z,37568
2017-06-15T08:45:01.130Z,40192
2017-06-15T08:46:00.499Z,45280
2017-06-15T08:47:00.858Z,40800
2017-06-15T08:48:01.127Z,31776
2017-06-15T08:49:00.501Z,39104
2017-06-15T08:50:00.502Z,38528
2017-06-15T08:51:01.146Z,38560
2017-06-15T08:52:00.501Z,31808
2017-06-15T08:53:00.504Z,21312
2017-06-15T08:54:01.137Z,23904
2017-06-15T08:55:00.190Z,18304
2017-06-15T08:56:00.506Z,19552
2017-06-15T08:57:00.505Z,18240
2017-06-15T08:58:00.815Z,24608
2017-06-15T08:59:01.135Z,22208
2017-06-15T09:00:00.818Z,19136
2017-06-15T09:01:00.815Z,14676
2017-06-15T09:02:00.814Z,13616
2017-06-15T09:03:00.822Z,12852
2017-06-15T09:04:00.514Z,13576
2017-06-15T09:05:00.524Z,12912
2017-06-15T09:06:00.815Z,14892
2017-06-15T09:07:00.182Z,19552
2017-06-15T09:08:00.814Z,23744
2017-06-15T09:09:00.819Z,24608
2017-06-15T09:10:00.506Z,24704
2017-06-15T09:11:01.150Z,24768
2017-06-15T09:12:00.808Z,27776
2017-06-15T09:13:00.807Z,51168
2017-06-15T09:14:00.495Z,66880
2017-06-15T09:15:00.494Z,74304
2017-06-15T09:16:00.802Z,62784
2017-06-15T09:17:01.122Z,41088
2017-06-15T09:18:00.493Z,35488
2017-06-15T09:19:01.115Z,26720
2017-06-15T09:20:01.141Z,27296
2017-06-15T09:21:00.180Z,43648
2017-06-15T09:22:01.160Z,55872
2017-06-15T09:23:00.494Z,25088
2017-06-15T09:24:00.804Z,30368
2017-06-15T09:25:01.147Z,47264
2017-06-15T09:26:00.807Z,72128
2017-06-15T09:27:00.510Z,69312
2017-06-15T09:28:01.127Z,51392
2017-06-15T09:29:00.280Z,68288
2017-06-15T09:30:00.223Z,73856
2017-06-15T09:31:00.859Z,59552
2017-06-15T09:32:00.502Z,38688
2017-06-15T09:33:00.195Z,55136
2017-06-15T09:34:00.815Z,61824
2017-06-15T09:35:00.815Z,72128
2017-06-15T09:36:00.884Z,74560
2017-06-15T09:37:00.504Z,74976
2017-06-15T09:38:00.542Z,74336
2017-06-15T09:39:00.521Z,79264
2017-06-15T09:40:00.828Z,82432
2017-06-15T09:41:00.829Z,82112
2017-06-15T09:42:00.583Z,80736
2017-06-15T09:43:00.831Z,80544
2017-06-15T09:44:00.836Z,67360
2017-06-15T09:45:00.522Z,53408
2017-06-15T09:46:00.527Z,47136
2017-06-15T09:47:00.229Z,53824
2017-06-15T09:48:00.535Z,69888
2017-06-15T09:49:00.535Z,76608
2017-06-15T09:50:00.557Z,71168
2017-06-15T09:51:00.547Z,65600
2017-06-15T09:52:00.601Z,46336
2017-06-15T09:53:00.861Z,66912
2017-06-15T09:54:00.545Z,75456
2017-06-15T09:55:01.206Z,73344
2017-06-15T09:56:00.873Z,76704
2017-06-15T09:57:00.560Z,80800
2017-06-15T09:58:00.557Z,77440
2017-06-15T09:59:00.883Z,76000
2017-06-15T10:00:01.197Z,45984
2017-06-15T10:01:00.571Z,77024
2017-06-15T10:02:01.206Z,74304
2017-06-15T10:03:00.581Z,72960
2017-06-15T10:04:01.206Z,72608
2017-06-15T10:05:00.927Z,74496
2017-06-15T10:06:00.922Z,78560
2017-06-15T10:07:00.599Z,83392
2017-06-15T10:08:01.243Z,87136
2017-06-15T10:09:00.912Z,87872
2017-06-15T10:10:00.605Z,83936
2017-06-15T10:11:01.237Z,82144
2017-06-15T10:12:00.938Z,40032
2017-06-15T10:13:00.305Z,39360
2017-06-15T10:14:00.620Z,77568
2017-06-15T10:15:01.247Z,82272
2017-06-15T10:16:00.945Z,90880
2017-06-15T10:17:01.265Z,96480
2017-06-15T10:18:00.324Z,98688
2017-06-15T10:19:01.269Z,91488
2017-06-15T10:20:00.964Z,76736
2017-06-15T10:21:00.956Z,47136
2017-06-15T10:22:00.967Z,29440
2017-06-15T10:23:00.968Z,25920
2017-06-15T10:24:00.969Z,20864
2017-06-15T10:25:00.663Z,19136
2017-06-15T10:26:00.987Z,18848
2017-06-15T10:27:00.355Z,18880
2017-06-15T10:28:01.307Z,21856
2017-06-15T10:29:00.684Z,18784
2017-06-15T10:30:00.679Z,17408
2017-06-15T10:31:00.996Z,18016
2017-06-15T10:32:00.369Z,19552
2017-06-15T10:33:00.735Z,24640
2017-06-15T10:34:01.005Z,39968
2017-06-15T10:35:00.685Z,53536
2017-06-15T10:36:00.687Z,23616
2017-06-15T10:37:01.318Z,23264
2017-06-15T10:38:01.326Z,33024
2017-06-15T10:39:01.007Z,35488
2017-06-15T10:40:01.013Z,29760
2017-06-15T10:41:01.029Z,37504
2017-06-15T10:42:01.011Z,61152
2017-06-15T10:43:00.695Z,55680
2017-06-15T10:44:00.703Z,93600
2017-06-15T10:45:00.704Z,67872
2017-06-15T10:46:01.016Z,60832
2017-06-15T10:47:01.064Z,43264
2017-06-15T10:48:00.701Z,41824
2017-06-15T10:49:01.348Z,46720
2017-06-15T10:50:00.704Z,39648
2017-06-15T10:51:00.720Z,42496
2017-06-15T10:52:01.344Z,41440
2017-06-15T10:53:01.028Z,46656
2017-06-15T10:54:00.722Z,48672
2017-06-15T10:55:00.770Z,37632
2017-06-15T10:56:00.719Z,36640
2017-06-15T10:57:01.082Z,59552
2017-06-15T10:58:01.075Z,37056
2017-06-15T10:59:01.089Z,35872
2017-06-15T11:00:00.428Z,50080
2017-06-15T11:01:00.782Z,32096
2017-06-15T11:02:01.355Z,29088
2017-06-15T11:03:01.073Z,28928
2017-06-15T11:04:01.042Z,30208
2017-06-15T11:05:00.735Z,39168
2017-06-15T11:06:01.041Z,29856
2017-06-15T11:07:01.045Z,40224
2017-06-15T11:08:00.735Z,59552
2017-06-15T11:09:01.052Z,52064
2017-06-15T11:10:01.363Z,39968
2017-06-15T11:11:00.750Z,37504
2017-06-15T11:12:01.062Z,26752
2017-06-15T11:13:01.379Z,90368
2017-06-15T11:14:01.372Z,49216
2017-06-15T11:15:01.374Z,93376
2017-06-15T11:16:00.745Z,88448
2017-06-15T11:17:00.436Z,84224
2017-06-15T11:18:00.752Z,80864
2017-06-15T11:19:00.435Z,77696
2017-06-15T11:20:00.751Z,81088
2017-06-15T11:21:01.086Z,88704
2017-06-15T11:22:00.767Z,96736
2017-06-15T11:23:00.763Z,104512
2017-06-15T11:24:01.302Z,107936
2017-06-15T11:25:01.081Z,110176
2017-06-15T11:26:00.772Z,109280
2017-06-15T11:27:00.780Z,103072
2017-06-15T11:28:00.783Z,93728
2017-06-15T11:29:01.091Z,85600
2017-06-15T11:30:01.099Z,80064
2017-06-15T11:31:00.783Z,74912
2017-06-15T11:32:00.794Z,72000
2017-06-15T11:33:00.791Z,73568
2017-06-15T11:34:01.117Z,80576
2017-06-15T11:35:00.488Z,88864
2017-06-15T11:36:01.431Z,90784
2017-06-15T11:37:00.496Z,92128
2017-06-15T11:38:00.831Z,97664
2017-06-15T11:39:01.130Z,98496
2017-06-15T11:40:01.137Z,93088
2017-06-15T11:41:00.826Z,85088
2017-06-15T11:42:00.837Z,78816
2017-06-15T11:43:00.857Z,75552
2017-06-15T11:44:00.849Z,72320
2017-06-15T11:45:01.155Z,69024
2017-06-15T11:46:01.166Z,68672
2017-06-15T11:47:01.165Z,70816
2017-06-15T11:48:01.219Z,73248
2017-06-15T11:49:00.875Z,73440
2017-06-15T11:50:00.553Z,75296
2017-06-15T11:51:01.247Z,83008
2017-06-15T11:52:00.876Z,91712
2017-06-15T11:53:01.203Z,96000
2017-06-15T11:54:00.881Z,96640
2017-06-15T11:55:01.201Z,95104
2017-06-15T11:56:01.222Z,90528
2017-06-15T11:57:00.898Z,81856
2017-06-15T11:58:01.540Z,72576
2017-06-15T11:59:00.911Z,67616
2017-06-15T12:00:01.554Z,64704
2017-06-15T12:01:00.925Z,62912
2017-06-15T12:02:01.252Z,63328
2017-06-15T12:03:01.238Z,67488
2017-06-15T12:04:01.575Z,77056
2017-06-15T12:05:00.627Z,84256
2017-06-15T12:06:00.945Z,90720
2017-06-15T12:07:01.258Z,92896
2017-06-15T12:08:01.263Z,91040
2017-06-15T12:09:01.579Z,84544
2017-06-15T12:10:01.651Z,78976
2017-06-15T12:11:01.280Z,72576
2017-06-15T12:12:00.657Z,66080
2017-06-15T12:13:01.289Z,60416
2017-06-15T12:14:00.981Z,61440
2017-06-15T12:15:01.302Z,69920
2017-06-15T12:16:00.990Z,75296
2017-06-15T12:17:00.675Z,83776
2017-06-15T12:18:01.321Z,92192
2017-06-15T12:19:01.319Z,99008
2017-06-15T12:20:01.324Z,99808
2017-06-15T12:21:01.335Z,96160
2017-06-15T12:22:01.551Z,92352
2017-06-15T12:23:01.030Z,90656
2017-06-15T12:24:01.348Z,89664
2017-06-15T12:25:01.378Z,86912
2017-06-15T12:26:01.046Z,85120
2017-06-15T12:27:01.347Z,87136
2017-06-15T12:28:01.357Z,87776
2017-06-15T12:29:01.363Z,86496
2017-06-15T12:30:01.363Z,81696
2017-06-15T12:31:01.371Z,80736
2017-06-15T12:32:01.063Z,81472
2017-06-15T12:33:00.754Z,75072
2017-06-15T12:34:01.386Z,70272
2017-06-15T12:35:01.075Z,65984
2017-06-15T12:36:01.708Z,70304
2017-06-15T12:37:01.710Z,80032
2017-06-15T12:38:01.402Z,80384
2017-06-15T12:39:01.097Z,75744
2017-06-15T12:40:01.415Z,79104
2017-06-15T12:41:01.422Z,62720
2017-06-15T12:42:01.424Z,66496
2017-06-15T12:43:01.110Z,71744
2017-06-15T12:44:01.120Z,68128
2017-06-15T12:45:01.438Z,65952
2017-06-15T12:46:01.750Z,67968
2017-06-15T12:47:01.441Z,71936
2017-06-15T12:48:01.759Z,76512
2017-06-15T12:49:01.767Z,88128
2017-06-15T12:50:01.796Z,80800
2017-06-15T12:51:01.466Z,82432
2017-06-15T12:52:01.471Z,67680
2017-06-15T12:53:01.794Z,68864
2017-06-15T12:54:01.168Z,65664
2017-06-15T12:55:01.167Z,53536
2017-06-15T12:56:01.172Z,81888
2017-06-15T12:57:01.838Z,84288
2017-06-15T12:58:01.491Z,87008
2017-06-15T12:59:01.822Z,88608
2017-06-15T13:00:01.504Z,90016
2017-06-15T13:01:01.517Z,66976
2017-06-15T13:02:01.208Z,54720
2017-06-15T13:03:01.516Z,57952
2017-06-15T13:04:01.547Z,46720
2017-06-15T13:05:01.218Z,42112
2017-06-15T13:06:01.219Z,17280
2017-06-15T13:07:01.536Z,17792
2017-06-15T13:08:01.857Z,28288
2017-06-15T13:09:01.117Z,29696
2017-06-15T13:10:01.538Z,28736
2017-06-15T13:11:01.561Z,18208
2017-06-15T13:12:01.552Z,49376
2017-06-15T13:13:01.878Z,26400
2017-06-15T13:14:01.251Z,27200
2017-06-15T13:15:01.927Z,41536
2017-06-15T13:16:00.936Z,33984
2017-06-15T13:17:01.567Z,39808
2017-06-15T13:18:01.249Z,33856
2017-06-15T13:19:01.881Z,33568
2017-06-15T13:20:01.577Z,36736
2017-06-15T13:21:01.582Z,35648
2017-06-15T13:22:01.263Z,21920
2017-06-15T13:23:01.579Z,29152
2017-06-15T13:24:02.096Z,35296
2017-06-15T13:25:01.269Z,15616